sensor_id;sensor_type;location;lat;lon;timestamp;P1;durP1;ratioP1;P2;durP2;ratioP2
39524;SDS011;25203;50.754;6.978;2024-01-25T00:01:09;32.38;;;7.68;;
39524;SDS011;25203;50.754;6.978;2024-01-25T00:03:09;38.90;;;8.88;;
39524;SDS011;25203;50.754;6.978;2024-01-25T00:05:10;33.10;;;7.38;;
39524;SDS011;25203;50.754;6.978;2024-01-25T00:07:10;38.20;;;7.10;;
39524;SDS011;25203;50.754;6.978;2024-01-25T00:09:11;42.95;;;7.22;;
39524;SDS011;25203;50.754;6.978;2024-01-25T00:11:12;36.55;;;5.88;;
39524;SDS011;25203;50.754;6.978;2024-01-25T00:13:13;46.05;;;6.30;;
39524;SDS011;25203;50.754;6.978;2024-01-25T00:15:13;49.22;;;8.55;;
39524;SDS011;25203;50.754;6.978;2024-01-25T00:17:14;38.28;;;8.15;;
39524;SDS011;25203;50.754;6.978;2024-01-25T00:19:15;41.15;;;8.73;;
39524;SDS011;25203;50.754;6.978;2024-01-25T00:21:15;37.75;;;6.40;;
39524;SDS011;25203;50.754;6.978;2024-01-25T00:23:16;51.20;;;9.65;;
39524;SDS011;25203;50.754;6.978;2024-01-25T00:25:16;43.58;;;7.72;;
39524;SDS011;25203;50.754;6.978;2024-01-25T00:27:17;40.67;;;9.05;;
39524;SDS011;25203;50.754;6.978;2024-01-25T00:29:17;38.83;;;8.13;;
39524;SDS011;25203;50.754;6.978;2024-01-25T00:31:18;41.92;;;7.45;;
39524;SDS011;25203;50.754;6.978;2024-01-25T00:33:19;40.15;;;7.90;;
39524;SDS011;25203;50.754;6.978;2024-01-25T00:35:19;39.40;;;7.85;;
39524;SDS011;25203;50.754;6.978;2024-01-25T00:37:20;43.25;;;8.70;;
39524;SDS011;25203;50.754;6.978;2024-01-25T00:39:21;35.30;;;7.53;;
39524;SDS011;25203;50.754;6.978;2024-01-25T00:41:22;40.05;;;7.97;;
39524;SDS011;25203;50.754;6.978;2024-01-25T00:43:23;42.13;;;8.13;;
39524;SDS011;25203;50.754;6.978;2024-01-25T00:45:24;47.30;;;9.15;;
39524;SDS011;25203;50.754;6.978;2024-01-25T00:47:25;33.70;;;7.03;;
39524;SDS011;25203;50.754;6.978;2024-01-25T00:49:26;47.20;;;10.15;;
39524;SDS011;25203;50.754;6.978;2024-01-25T00:51:27;43.65;;;7.25;;
39524;SDS011;25203;50.754;6.978;2024-01-25T00:53:28;40.78;;;6.10;;
39524;SDS011;25203;50.754;6.978;2024-01-25T00:55:29;45.45;;;8.82;;
39524;SDS011;25203;50.754;6.978;2024-01-25T00:57:30;39.33;;;7.63;;
39524;SDS011;25203;50.754;6.978;2024-01-25T00:59:31;38.97;;;7.57;;
39524;SDS011;25203;50.754;6.978;2024-01-25T01:01:32;46.03;;;7.82;;
39524;SDS011;25203;50.754;6.978;2024-01-25T01:03:33;54.38;;;8.45;;
39524;SDS011;25203;50.754;6.978;2024-01-25T01:05:33;41.20;;;9.27;;
39524;SDS011;25203;50.754;6.978;2024-01-25T01:07:34;34.15;;;7.10;;
39524;SDS011;25203;50.754;6.978;2024-01-25T01:09:35;39.47;;;9.23;;
39524;SDS011;25203;50.754;6.978;2024-01-25T01:11:36;53.38;;;8.65;;
39524;SDS011;25203;50.754;6.978;2024-01-25T01:13:36;38.05;;;8.82;;
39524;SDS011;25203;50.754;6.978;2024-01-25T01:15:37;54.47;;;8.25;;
39524;SDS011;25203;50.754;6.978;2024-01-25T01:17:38;37.72;;;9.18;;
39524;SDS011;25203;50.754;6.978;2024-01-25T01:19:38;36.50;;;6.43;;
39524;SDS011;25203;50.754;6.978;2024-01-25T01:21:39;47.08;;;9.18;;
39524;SDS011;25203;50.754;6.978;2024-01-25T01:23:43;43.25;;;8.13;;
39524;SDS011;25203;50.754;6.978;2024-01-25T01:25:44;40.88;;;7.50;;
39524;SDS011;25203;50.754;6.978;2024-01-25T01:27:45;39.05;;;7.72;;
39524;SDS011;25203;50.754;6.978;2024-01-25T01:29:45;48.80;;;9.38;;
39524;SDS011;25203;50.754;6.978;2024-01-25T01:31:46;53.20;;;8.25;;
39524;SDS011;25203;50.754;6.978;2024-01-25T01:33:46;42.90;;;7.78;;
39524;SDS011;25203;50.754;6.978;2024-01-25T01:35:47;48.78;;;9.07;;
39524;SDS011;25203;50.754;6.978;2024-01-25T01:37:48;40.90;;;9.98;;
39524;SDS011;25203;50.754;6.978;2024-01-25T01:39:48;49.47;;;7.80;;
39524;SDS011;25203;50.754;6.978;2024-01-25T01:41:49;41.63;;;9.27;;
39524;SDS011;25203;50.754;6.978;2024-01-25T01:43:53;43.47;;;7.75;;
39524;SDS011;25203;50.754;6.978;2024-01-25T01:45:54;45.25;;;8.20;;
39524;SDS011;25203;50.754;6.978;2024-01-25T01:48:09;40.88;;;6.88;;
39524;SDS011;25203;50.754;6.978;2024-01-25T01:50:10;50.75;;;8.77;;
39524;SDS011;25203;50.754;6.978;2024-01-25T01:52:11;44.60;;;6.63;;
39524;SDS011;25203;50.754;6.978;2024-01-25T01:54:12;47.78;;;8.15;;
39524;SDS011;25203;50.754;6.978;2024-01-25T01:56:13;37.78;;;7.57;;
39524;SDS011;25203;50.754;6.978;2024-01-25T01:58:14;38.85;;;8.38;;
39524;SDS011;25203;50.754;6.978;2024-01-25T02:00:15;40.25;;;7.38;;
39524;SDS011;25203;50.754;6.978;2024-01-25T02:02:19;49.10;;;9.00;;
39524;SDS011;25203;50.754;6.978;2024-01-25T02:04:19;42.38;;;7.28;;
39524;SDS011;25203;50.754;6.978;2024-01-25T02:06:20;42.95;;;8.27;;
39524;SDS011;25203;50.754;6.978;2024-01-25T02:08:22;48.28;;;7.82;;
39524;SDS011;25203;50.754;6.978;2024-01-25T02:10:22;46.70;;;8.98;;
39524;SDS011;25203;50.754;6.978;2024-01-25T02:12:23;49.20;;;8.02;;
39524;SDS011;25203;50.754;6.978;2024-01-25T02:14:23;56.20;;;11.15;;
39524;SDS011;25203;50.754;6.978;2024-01-25T02:16:24;48.95;;;8.77;;
39524;SDS011;25203;50.754;6.978;2024-01-25T02:18:24;43.13;;;8.52;;
39524;SDS011;25203;50.754;6.978;2024-01-25T02:20:25;50.53;;;8.35;;
39524;SDS011;25203;50.754;6.978;2024-01-25T02:22:26;43.28;;;9.55;;
39524;SDS011;25203;50.754;6.978;2024-01-25T02:24:26;51.42;;;9.90;;
39524;SDS011;25203;50.754;6.978;2024-01-25T02:26:27;53.03;;;9.02;;
39524;SDS011;25203;50.754;6.978;2024-01-25T02:28:27;47.08;;;8.25;;
39524;SDS011;25203;50.754;6.978;2024-01-25T02:30:28;43.22;;;8.30;;
39524;SDS011;25203;50.754;6.978;2024-01-25T02:32:29;49.05;;;9.00;;
39524;SDS011;25203;50.754;6.978;2024-01-25T02:34:29;44.47;;;8.00;;
39524;SDS011;25203;50.754;6.978;2024-01-25T02:36:30;48.22;;;7.50;;
39524;SDS011;25203;50.754;6.978;2024-01-25T02:38:32;54.88;;;8.73;;
39524;SDS011;25203;50.754;6.978;2024-01-25T02:40:32;60.03;;;8.90;;
39524;SDS011;25203;50.754;6.978;2024-01-25T02:42:33;48.28;;;9.35;;
39524;SDS011;25203;50.754;6.978;2024-01-25T02:44:34;42.80;;;8.00;;
39524;SDS011;25203;50.754;6.978;2024-01-25T02:46:34;41.08;;;8.52;;
39524;SDS011;25203;50.754;6.978;2024-01-25T02:48:35;42.40;;;7.82;;
39524;SDS011;25203;50.754;6.978;2024-01-25T02:50:35;51.42;;;9.35;;
39524;SDS011;25203;50.754;6.978;2024-01-25T02:52:36;44.80;;;7.55;;
39524;SDS011;25203;50.754;6.978;2024-01-25T02:54:36;56.90;;;9.75;;
39524;SDS011;25203;50.754;6.978;2024-01-25T02:56:37;51.63;;;8.15;;
39524;SDS011;25203;50.754;6.978;2024-01-25T02:58:38;56.05;;;10.85;;
39524;SDS011;25203;50.754;6.978;2024-01-25T03:00:38;43.55;;;10.43;;
39524;SDS011;25203;50.754;6.978;2024-01-25T03:02:39;49.80;;;9.13;;
39524;SDS011;25203;50.754;6.978;2024-01-25T03:04:39;46.08;;;7.72;;
39524;SDS011;25203;50.754;6.978;2024-01-25T03:06:40;54.22;;;9.57;;
39524;SDS011;25203;50.754;6.978;2024-01-25T03:08:41;46.03;;;9.18;;
39524;SDS011;25203;50.754;6.978;2024-01-25T03:10:41;59.10;;;10.05;;
39524;SDS011;25203;50.754;6.978;2024-01-25T03:12:42;51.53;;;9.80;;
39524;SDS011;25203;50.754;6.978;2024-01-25T03:14:42;56.40;;;9.50;;
39524;SDS011;25203;50.754;6.978;2024-01-25T03:16:43;62.15;;;9.77;;
39524;SDS011;25203;50.754;6.978;2024-01-25T03:18:44;59.90;;;11.57;;
39524;SDS011;25203;50.754;6.978;2024-01-25T03:20:44;39.97;;;8.40;;
39524;SDS011;25203;50.754;6.978;2024-01-25T03:22:45;59.53;;;9.65;;
39524;SDS011;25203;50.754;6.978;2024-01-25T03:24:46;44.05;;;9.35;;
39524;SDS011;25203;50.754;6.978;2024-01-25T03:26:46;41.80;;;8.75;;
39524;SDS011;25203;50.754;6.978;2024-01-25T03:28:47;54.88;;;9.77;;
39524;SDS011;25203;50.754;6.978;2024-01-25T03:30:47;48.60;;;10.73;;
39524;SDS011;25203;50.754;6.978;2024-01-25T03:32:48;63.22;;;9.88;;
39524;SDS011;25203;50.754;6.978;2024-01-25T03:34:49;46.97;;;8.82;;
39524;SDS011;25203;50.754;6.978;2024-01-25T03:36:49;43.88;;;10.07;;
39524;SDS011;25203;50.754;6.978;2024-01-25T03:38:53;55.67;;;9.55;;
39524;SDS011;25203;50.754;6.978;2024-01-25T03:40:53;52.03;;;9.55;;
39524;SDS011;25203;50.754;6.978;2024-01-25T03:42:55;52.50;;;9.88;;
39524;SDS011;25203;50.754;6.978;2024-01-25T03:44:55;51.65;;;10.30;;
39524;SDS011;25203;50.754;6.978;2024-01-25T03:46:56;49.45;;;9.63;;
39524;SDS011;25203;50.754;6.978;2024-01-25T03:48:56;51.60;;;8.88;;
39524;SDS011;25203;50.754;6.978;2024-01-25T03:50:57;44.97;;;9.80;;
39524;SDS011;25203;50.754;6.978;2024-01-25T03:52:58;47.65;;;10.75;;
39524;SDS011;25203;50.754;6.978;2024-01-25T03:54:58;52.92;;;10.27;;
39524;SDS011;25203;50.754;6.978;2024-01-25T03:56:59;48.80;;;9.63;;
39524;SDS011;25203;50.754;6.978;2024-01-25T03:59:00;54.83;;;10.82;;
39524;SDS011;25203;50.754;6.978;2024-01-25T04:01:00;57.88;;;10.75;;
39524;SDS011;25203;50.754;6.978;2024-01-25T04:03:01;52.90;;;9.95;;
39524;SDS011;25203;50.754;6.978;2024-01-25T04:05:01;51.30;;;11.50;;
39524;SDS011;25203;50.754;6.978;2024-01-25T04:07:02;61.97;;;10.88;;
39524;SDS011;25203;50.754;6.978;2024-01-25T04:09:03;42.95;;;9.35;;
39524;SDS011;25203;50.754;6.978;2024-01-25T04:11:03;46.28;;;9.93;;
39524;SDS011;25203;50.754;6.978;2024-01-25T04:13:04;50.83;;;9.57;;
39524;SDS011;25203;50.754;6.978;2024-01-25T04:15:06;51.65;;;10.43;;
39524;SDS011;25203;50.754;6.978;2024-01-25T04:17:07;46.13;;;7.95;;
39524;SDS011;25203;50.754;6.978;2024-01-25T04:19:08;49.95;;;10.70;;
39524;SDS011;25203;50.754;6.978;2024-01-25T04:21:12;49.53;;;10.73;;
39524;SDS011;25203;50.754;6.978;2024-01-25T04:23:12;51.78;;;9.73;;
39524;SDS011;25203;50.754;6.978;2024-01-25T04:25:13;57.80;;;9.30;;
39524;SDS011;25203;50.754;6.978;2024-01-25T04:27:14;49.50;;;8.70;;
39524;SDS011;25203;50.754;6.978;2024-01-25T04:29:14;53.13;;;9.70;;
39524;SDS011;25203;50.754;6.978;2024-01-25T04:31:15;53.55;;;11.13;;
39524;SDS011;25203;50.754;6.978;2024-01-25T04:33:16;54.55;;;10.85;;
39524;SDS011;25203;50.754;6.978;2024-01-25T04:35:16;62.92;;;10.88;;
39524;SDS011;25203;50.754;6.978;2024-01-25T04:37:17;39.08;;;8.82;;
39524;SDS011;25203;50.754;6.978;2024-01-25T04:39:18;54.42;;;11.48;;
39524;SDS011;25203;50.754;6.978;2024-01-25T04:41:18;41.97;;;10.13;;
39524;SDS011;25203;50.754;6.978;2024-01-25T04:43:19;54.03;;;10.85;;
39524;SDS011;25203;50.754;6.978;2024-01-25T04:45:19;49.72;;;10.30;;
39524;SDS011;25203;50.754;6.978;2024-01-25T04:47:20;55.85;;;11.00;;
39524;SDS011;25203;50.754;6.978;2024-01-25T04:49:21;54.85;;;11.02;;
39524;SDS011;25203;50.754;6.978;2024-01-25T04:51:21;45.80;;;10.65;;
39524;SDS011;25203;50.754;6.978;2024-01-25T04:53:22;46.90;;;10.18;;
39524;SDS011;25203;50.754;6.978;2024-01-25T04:55:23;54.92;;;9.43;;
39524;SDS011;25203;50.754;6.978;2024-01-25T04:57:23;59.20;;;12.02;;
39524;SDS011;25203;50.754;6.978;2024-01-25T04:59:24;48.00;;;10.73;;
39524;SDS011;25203;50.754;6.978;2024-01-25T05:01:24;53.03;;;11.68;;
39524;SDS011;25203;50.754;6.978;2024-01-25T05:03:25;52.05;;;11.88;;
39524;SDS011;25203;50.754;6.978;2024-01-25T05:05:26;50.13;;;12.32;;
39524;SDS011;25203;50.754;6.978;2024-01-25T05:07:26;68.38;;;12.93;;
39524;SDS011;25203;50.754;6.978;2024-01-25T05:09:27;48.55;;;10.93;;
39524;SDS011;25203;50.754;6.978;2024-01-25T05:11:27;57.75;;;12.93;;
39524;SDS011;25203;50.754;6.978;2024-01-25T05:13:28;54.15;;;10.30;;
39524;SDS011;25203;50.754;6.978;2024-01-25T05:15:29;57.92;;;12.43;;
39524;SDS011;25203;50.754;6.978;2024-01-25T05:17:29;63.75;;;12.93;;
39524;SDS011;25203;50.754;6.978;2024-01-25T05:19:30;57.13;;;12.93;;
39524;SDS011;25203;50.754;6.978;2024-01-25T05:21:31;63.20;;;12.10;;
39524;SDS011;25203;50.754;6.978;2024-01-25T05:23:31;58.63;;;12.65;;
39524;SDS011;25203;50.754;6.978;2024-01-25T05:25:32;54.55;;;9.98;;
39524;SDS011;25203;50.754;6.978;2024-01-25T05:27:32;62.45;;;11.43;;
39524;SDS011;25203;50.754;6.978;2024-01-25T05:29:33;69.40;;;11.68;;
39524;SDS011;25203;50.754;6.978;2024-01-25T05:31:34;61.85;;;12.25;;
39524;SDS011;25203;50.754;6.978;2024-01-25T05:33:35;51.10;;;10.90;;
39524;SDS011;25203;50.754;6.978;2024-01-25T05:35:35;63.90;;;12.70;;
39524;SDS011;25203;50.754;6.978;2024-01-25T05:37:36;62.72;;;12.32;;
39524;SDS011;25203;50.754;6.978;2024-01-25T05:39:37;77.75;;;12.90;;
39524;SDS011;25203;50.754;6.978;2024-01-25T05:41:37;59.15;;;11.63;;
39524;SDS011;25203;50.754;6.978;2024-01-25T05:43:39;61.63;;;11.18;;
39524;SDS011;25203;50.754;6.978;2024-01-25T05:45:39;53.28;;;12.15;;
39524;SDS011;25203;50.754;6.978;2024-01-25T05:47:40;55.55;;;10.23;;
39524;SDS011;25203;50.754;6.978;2024-01-25T05:49:40;48.42;;;9.32;;
39524;SDS011;25203;50.754;6.978;2024-01-25T05:51:41;52.25;;;9.75;;
39524;SDS011;25203;50.754;6.978;2024-01-25T05:53:42;52.63;;;9.13;;
39524;SDS011;25203;50.754;6.978;2024-01-25T05:55:42;57.40;;;8.95;;
39524;SDS011;25203;50.754;6.978;2024-01-25T05:57:43;46.35;;;10.10;;
39524;SDS011;25203;50.754;6.978;2024-01-25T05:59:46;50.47;;;7.75;;
39524;SDS011;25203;50.754;6.978;2024-01-25T06:01:47;48.20;;;11.82;;
39524;SDS011;25203;50.754;6.978;2024-01-25T06:03:48;47.30;;;9.32;;
39524;SDS011;25203;50.754;6.978;2024-01-25T06:05:48;44.40;;;10.93;;
39524;SDS011;25203;50.754;6.978;2024-01-25T06:07:49;60.75;;;10.02;;
39524;SDS011;25203;50.754;6.978;2024-01-25T06:09:50;49.80;;;10.85;;
39524;SDS011;25203;50.754;6.978;2024-01-25T06:11:51;44.40;;;10.70;;
39524;SDS011;25203;50.754;6.978;2024-01-25T06:13:51;70.05;;;13.07;;
39524;SDS011;25203;50.754;6.978;2024-01-25T06:15:52;51.70;;;9.50;;
39524;SDS011;25203;50.754;6.978;2024-01-25T06:17:53;46.33;;;8.38;;
39524;SDS011;25203;50.754;6.978;2024-01-25T06:19:53;50.15;;;10.48;;
39524;SDS011;25203;50.754;6.978;2024-01-25T06:21:54;46.97;;;10.88;;
39524;SDS011;25203;50.754;6.978;2024-01-25T06:23:54;59.40;;;10.25;;
39524;SDS011;25203;50.754;6.978;2024-01-25T06:25:55;47.80;;;10.95;;
39524;SDS011;25203;50.754;6.978;2024-01-25T06:27:56;56.25;;;9.57;;
39524;SDS011;25203;50.754;6.978;2024-01-25T06:29:57;52.58;;;9.48;;
39524;SDS011;25203;50.754;6.978;2024-01-25T06:31:57;58.42;;;11.10;;
39524;SDS011;25203;50.754;6.978;2024-01-25T06:33:58;59.10;;;9.90;;
39524;SDS011;25203;50.754;6.978;2024-01-25T06:35:59;51.85;;;10.02;;
39524;SDS011;25203;50.754;6.978;2024-01-25T06:38:00;69.25;;;10.18;;
39524;SDS011;25203;50.754;6.978;2024-01-25T06:40:00;48.17;;;10.23;;
39524;SDS011;25203;50.754;6.978;2024-01-25T06:42:02;63.17;;;10.18;;
39524;SDS011;25203;50.754;6.978;2024-01-25T06:44:03;52.42;;;9.80;;
39524;SDS011;25203;50.754;6.978;2024-01-25T06:46:04;56.10;;;10.10;;
39524;SDS011;25203;50.754;6.978;2024-01-25T06:48:06;56.88;;;9.82;;
39524;SDS011;25203;50.754;6.978;2024-01-25T06:50:08;48.92;;;10.18;;
39524;SDS011;25203;50.754;6.978;2024-01-25T06:52:09;51.28;;;10.15;;
39524;SDS011;25203;50.754;6.978;2024-01-25T06:54:10;50.13;;;10.23;;
39524;SDS011;25203;50.754;6.978;2024-01-25T06:56:10;53.22;;;9.95;;
39524;SDS011;25203;50.754;6.978;2024-01-25T06:58:11;65.32;;;11.43;;
39524;SDS011;25203;50.754;6.978;2024-01-25T07:00:12;55.58;;;11.00;;
39524;SDS011;25203;50.754;6.978;2024-01-25T07:02:15;64.63;;;12.00;;
39524;SDS011;25203;50.754;6.978;2024-01-25T07:04:16;44.42;;;11.45;;
39524;SDS011;25203;50.754;6.978;2024-01-25T07:06:17;51.88;;;9.90;;
39524;SDS011;25203;50.754;6.978;2024-01-25T07:08:18;63.85;;;10.93;;
39524;SDS011;25203;50.754;6.978;2024-01-25T07:10:19;50.90;;;13.38;;
39524;SDS011;25203;50.754;6.978;2024-01-25T07:12:21;55.80;;;11.07;;
39524;SDS011;25203;50.754;6.978;2024-01-25T07:14:22;54.17;;;10.65;;
39524;SDS011;25203;50.754;6.978;2024-01-25T07:16:22;47.15;;;11.55;;
39524;SDS011;25203;50.754;6.978;2024-01-25T07:18:23;55.63;;;12.43;;
39524;SDS011;25203;50.754;6.978;2024-01-25T07:20:24;51.45;;;11.60;;
39524;SDS011;25203;50.754;6.978;2024-01-25T07:22:25;31.60;;;10.00;;
39524;SDS011;25203;50.754;6.978;2024-01-25T07:24:25;44.55;;;11.05;;
39524;SDS011;25203;50.754;6.978;2024-01-25T07:26:27;34.45;;;9.48;;
39524;SDS011;25203;50.754;6.978;2024-01-25T07:28:27;53.67;;;10.73;;
39524;SDS011;25203;50.754;6.978;2024-01-25T07:30:28;49.88;;;11.05;;
39524;SDS011;25203;50.754;6.978;2024-01-25T07:32:28;52.72;;;11.60;;
39524;SDS011;25203;50.754;6.978;2024-01-25T07:34:29;50.78;;;11.45;;
39524;SDS011;25203;50.754;6.978;2024-01-25T07:36:30;50.85;;;12.07;;
39524;SDS011;25203;50.754;6.978;2024-01-25T07:38:30;58.63;;;12.55;;
39524;SDS011;25203;50.754;6.978;2024-01-25T07:40:31;50.10;;;12.43;;
39524;SDS011;25203;50.754;6.978;2024-01-25T07:42:31;54.60;;;10.07;;
39524;SDS011;25203;50.754;6.978;2024-01-25T07:44:32;40.75;;;10.63;;
39524;SDS011;25203;50.754;6.978;2024-01-25T07:46:33;47.35;;;10.88;;
39524;SDS011;25203;50.754;6.978;2024-01-25T07:48:33;45.10;;;9.35;;
39524;SDS011;25203;50.754;6.978;2024-01-25T07:50:34;42.67;;;9.93;;
39524;SDS011;25203;50.754;6.978;2024-01-25T07:52:34;45.28;;;9.50;;
39524;SDS011;25203;50.754;6.978;2024-01-25T07:54:35;37.70;;;8.50;;
39524;SDS011;25203;50.754;6.978;2024-01-25T07:56:36;42.38;;;9.45;;
39524;SDS011;25203;50.754;6.978;2024-01-25T07:58:36;48.50;;;10.90;;
39524;SDS011;25203;50.754;6.978;2024-01-25T08:00:37;54.78;;;9.27;;
39524;SDS011;25203;50.754;6.978;2024-01-25T08:02:38;54.58;;;11.23;;
39524;SDS011;25203;50.754;6.978;2024-01-25T08:04:41;40.88;;;9.43;;
39524;SDS011;25203;50.754;6.978;2024-01-25T08:06:42;40.70;;;8.90;;
39524;SDS011;25203;50.754;6.978;2024-01-25T08:08:42;42.22;;;9.18;;
39524;SDS011;25203;50.754;6.978;2024-01-25T08:10:43;37.50;;;10.88;;
39524;SDS011;25203;50.754;6.978;2024-01-25T08:12:45;39.22;;;10.10;;
39524;SDS011;25203;50.754;6.978;2024-01-25T08:14:47;43.92;;;9.98;;
39524;SDS011;25203;50.754;6.978;2024-01-25T08:16:48;39.65;;;9.15;;
39524;SDS011;25203;50.754;6.978;2024-01-25T08:18:48;32.88;;;8.55;;
39524;SDS011;25203;50.754;6.978;2024-01-25T08:20:49;24.90;;;7.90;;
39524;SDS011;25203;50.754;6.978;2024-01-25T08:22:50;34.13;;;7.57;;
39524;SDS011;25203;50.754;6.978;2024-01-25T08:24:51;33.47;;;7.10;;
39524;SDS011;25203;50.754;6.978;2024-01-25T08:26:51;34.60;;;8.52;;
39524;SDS011;25203;50.754;6.978;2024-01-25T08:28:52;39.58;;;9.50;;
39524;SDS011;25203;50.754;6.978;2024-01-25T08:30:52;34.40;;;8.35;;
39524;SDS011;25203;50.754;6.978;2024-01-25T08:32:53;31.50;;;7.55;;
39524;SDS011;25203;50.754;6.978;2024-01-25T08:34:53;36.88;;;7.80;;
39524;SDS011;25203;50.754;6.978;2024-01-25T08:36:54;26.00;;;7.47;;
39524;SDS011;25203;50.754;6.978;2024-01-25T08:38:55;23.40;;;6.43;;
39524;SDS011;25203;50.754;6.978;2024-01-25T08:40:56;32.38;;;7.85;;
39524;SDS011;25203;50.754;6.978;2024-01-25T08:42:56;35.58;;;7.32;;
39524;SDS011;25203;50.754;6.978;2024-01-25T08:44:57;32.47;;;7.75;;
39524;SDS011;25203;50.754;6.978;2024-01-25T08:46:57;24.42;;;6.57;;
39524;SDS011;25203;50.754;6.978;2024-01-25T08:48:58;37.08;;;7.95;;
39524;SDS011;25203;50.754;6.978;2024-01-25T08:50:59;36.30;;;7.15;;
39524;SDS011;25203;50.754;6.978;2024-01-25T08:52:59;26.05;;;6.78;;
39524;SDS011;25203;50.754;6.978;2024-01-25T08:55:00;26.38;;;6.80;;
39524;SDS011;25203;50.754;6.978;2024-01-25T08:57:00;34.05;;;7.35;;
39524;SDS011;25203;50.754;6.978;2024-01-25T08:59:01;42.13;;;8.00;;
39524;SDS011;25203;50.754;6.978;2024-01-25T09:01:02;31.33;;;6.80;;
39524;SDS011;25203;50.754;6.978;2024-01-25T09:03:02;31.73;;;7.45;;
39524;SDS011;25203;50.754;6.978;2024-01-25T09:05:04;24.02;;;6.82;;
39524;SDS011;25203;50.754;6.978;2024-01-25T09:07:05;33.28;;;6.40;;
39524;SDS011;25203;50.754;6.978;2024-01-25T09:09:06;29.85;;;6.60;;
39524;SDS011;25203;50.754;6.978;2024-01-25T09:11:06;26.13;;;8.27;;
39524;SDS011;25203;50.754;6.978;2024-01-25T09:13:07;30.13;;;7.15;;
39524;SDS011;25203;50.754;6.978;2024-01-25T09:15:09;30.25;;;6.30;;
39524;SDS011;25203;50.754;6.978;2024-01-25T09:17:10;26.02;;;6.50;;
39524;SDS011;25203;50.754;6.978;2024-01-25T09:19:11;35.60;;;7.40;;
39524;SDS011;25203;50.754;6.978;2024-01-25T09:21:12;31.13;;;8.30;;
39524;SDS011;25203;50.754;6.978;2024-01-25T09:23:13;25.73;;;6.25;;
39524;SDS011;25203;50.754;6.978;2024-01-25T09:25:16;32.17;;;7.57;;
39524;SDS011;25203;50.754;6.978;2024-01-25T09:27:17;28.85;;;6.95;;
39524;SDS011;25203;50.754;6.978;2024-01-25T09:29:17;28.73;;;7.78;;
39524;SDS011;25203;50.754;6.978;2024-01-25T09:31:18;31.38;;;6.88;;
39524;SDS011;25203;50.754;6.978;2024-01-25T09:33:19;32.35;;;7.22;;
39524;SDS011;25203;50.754;6.978;2024-01-25T09:35:19;29.88;;;7.00;;
39524;SDS011;25203;50.754;6.978;2024-01-25T09:37:20;28.63;;;7.20;;
39524;SDS011;25203;50.754;6.978;2024-01-25T09:39:23;29.00;;;7.25;;
39524;SDS011;25203;50.754;6.978;2024-01-25T09:41:23;29.35;;;6.82;;
39524;SDS011;25203;50.754;6.978;2024-01-25T09:43:24;24.98;;;6.53;;
39524;SDS011;25203;50.754;6.978;2024-01-25T09:45:25;31.05;;;6.68;;
39524;SDS011;25203;50.754;6.978;2024-01-25T09:47:25;28.45;;;8.18;;
39524;SDS011;25203;50.754;6.978;2024-01-25T09:49:26;24.42;;;5.70;;
39524;SDS011;25203;50.754;6.978;2024-01-25T09:51:27;29.48;;;7.00;;
39524;SDS011;25203;50.754;6.978;2024-01-25T09:53:34;29.88;;;8.18;;
39524;SDS011;25203;50.754;6.978;2024-01-25T09:55:36;28.85;;;6.65;;
39524;SDS011;25203;50.754;6.978;2024-01-25T09:57:41;28.48;;;7.35;;
39524;SDS011;25203;50.754;6.978;2024-01-25T09:59:44;37.20;;;9.05;;
39524;SDS011;25203;50.754;6.978;2024-01-25T10:01:45;38.40;;;9.30;;
39524;SDS011;25203;50.754;6.978;2024-01-25T10:03:48;30.35;;;7.60;;
39524;SDS011;25203;50.754;6.978;2024-01-25T10:05:49;35.55;;;8.23;;
39524;SDS011;25203;50.754;6.978;2024-01-25T10:07:49;33.53;;;7.15;;
39524;SDS011;25203;50.754;6.978;2024-01-25T10:09:50;28.83;;;7.65;;
39524;SDS011;25203;50.754;6.978;2024-01-25T10:11:52;30.23;;;7.13;;
39524;SDS011;25203;50.754;6.978;2024-01-25T10:13:53;22.95;;;6.68;;
39524;SDS011;25203;50.754;6.978;2024-01-25T10:15:56;27.50;;;8.10;;
39524;SDS011;25203;50.754;6.978;2024-01-25T10:17:58;25.58;;;6.38;;
39524;SDS011;25203;50.754;6.978;2024-01-25T10:19:58;30.92;;;6.50;;
39524;SDS011;25203;50.754;6.978;2024-01-25T10:21:59;28.17;;;6.32;;
39524;SDS011;25203;50.754;6.978;2024-01-25T10:24:00;28.30;;;6.80;;
39524;SDS011;25203;50.754;6.978;2024-01-25T10:26:00;20.98;;;6.65;;
39524;SDS011;25203;50.754;6.978;2024-01-25T10:28:05;23.05;;;6.57;;
39524;SDS011;25203;50.754;6.978;2024-01-25T10:30:07;26.95;;;7.75;;
39524;SDS011;25203;50.754;6.978;2024-01-25T10:32:09;23.95;;;7.05;;
39524;SDS011;25203;50.754;6.978;2024-01-25T10:34:11;25.50;;;6.28;;
39524;SDS011;25203;50.754;6.978;2024-01-25T10:36:14;24.95;;;6.63;;
39524;SDS011;25203;50.754;6.978;2024-01-25T10:38:17;29.25;;;7.72;;
39524;SDS011;25203;50.754;6.978;2024-01-25T10:40:21;30.52;;;7.15;;
39524;SDS011;25203;50.754;6.978;2024-01-25T10:42:22;22.83;;;5.97;;
39524;SDS011;25203;50.754;6.978;2024-01-25T10:44:23;26.38;;;7.82;;
39524;SDS011;25203;50.754;6.978;2024-01-25T10:46:23;28.25;;;6.65;;
39524;SDS011;25203;50.754;6.978;2024-01-25T10:48:26;32.63;;;7.25;;
39524;SDS011;25203;50.754;6.978;2024-01-25T10:50:27;34.28;;;7.45;;
39524;SDS011;25203;50.754;6.978;2024-01-25T10:52:28;30.10;;;7.63;;
39524;SDS011;25203;50.754;6.978;2024-01-25T10:54:32;28.50;;;6.75;;
39524;SDS011;25203;50.754;6.978;2024-01-25T10:56:37;28.67;;;6.82;;
39524;SDS011;25203;50.754;6.978;2024-01-25T10:58:41;26.55;;;5.50;;
39524;SDS011;25203;50.754;6.978;2024-01-25T11:00:41;33.42;;;7.22;;
39524;SDS011;25203;50.754;6.978;2024-01-25T11:02:51;24.73;;;6.28;;
39524;SDS011;25203;50.754;6.978;2024-01-25T11:04:52;27.52;;;7.13;;
39524;SDS011;25203;50.754;6.978;2024-01-25T11:07:03;21.23;;;5.70;;
39524;SDS011;25203;50.754;6.978;2024-01-25T11:09:06;25.90;;;5.97;;
39524;SDS011;25203;50.754;6.978;2024-01-25T11:11:10;30.33;;;7.55;;
39524;SDS011;25203;50.754;6.978;2024-01-25T11:13:13;24.17;;;8.52;;
39524;SDS011;25203;50.754;6.978;2024-01-25T11:15:19;25.52;;;7.03;;
39524;SDS011;25203;50.754;6.978;2024-01-25T11:17:24;30.33;;;6.25;;
39524;SDS011;25203;50.754;6.978;2024-01-25T11:19:24;19.20;;;5.15;;
39524;SDS011;25203;50.754;6.978;2024-01-25T11:21:26;22.70;;;5.90;;
39524;SDS011;25203;50.754;6.978;2024-01-25T11:23:31;21.60;;;7.15;;
39524;SDS011;25203;50.754;6.978;2024-01-25T11:25:35;21.85;;;5.22;;
39524;SDS011;25203;50.754;6.978;2024-01-25T11:27:36;17.75;;;4.65;;
39524;SDS011;25203;50.754;6.978;2024-01-25T11:29:38;19.25;;;5.28;;
39524;SDS011;25203;50.754;6.978;2024-01-25T11:31:40;23.65;;;6.25;;
39524;SDS011;25203;50.754;6.978;2024-01-25T11:33:41;20.33;;;4.80;;
39524;SDS011;25203;50.754;6.978;2024-01-25T11:35:41;26.17;;;6.03;;
39524;SDS011;25203;50.754;6.978;2024-01-25T11:37:45;25.45;;;5.65;;
39524;SDS011;25203;50.754;6.978;2024-01-25T11:39:46;30.20;;;6.13;;
39524;SDS011;25203;50.754;6.978;2024-01-25T11:41:47;21.48;;;5.22;;
39524;SDS011;25203;50.754;6.978;2024-01-25T11:43:50;26.02;;;6.05;;
39524;SDS011;25203;50.754;6.978;2024-01-25T11:45:51;19.27;;;5.65;;
39524;SDS011;25203;50.754;6.978;2024-01-25T11:47:51;16.90;;;5.03;;
39524;SDS011;25203;50.754;6.978;2024-01-25T11:49:52;21.30;;;5.72;;
39524;SDS011;25203;50.754;6.978;2024-01-25T11:51:52;24.92;;;6.82;;
39524;SDS011;25203;50.754;6.978;2024-01-25T11:53:54;26.52;;;8.00;;
39524;SDS011;25203;50.754;6.978;2024-01-25T11:55:55;27.02;;;6.70;;